CGMPW CYHZ-CYQM
Flight info
| Callsign | CGMPW |
|---|---|
| Flight time | 0h 26m |
| Altitude | 12000 |
| Route | DCT |
| Aircraft | PC24/L-SBDGIRWY/LB2 |
Departure
| Time | 2026-05-04 22:11 |
|---|---|
| Airport | Halifax / Stanfield International Airport (CYHZ) |
Arrival
| Time | 2026-05-04 22:37 |
|---|---|
| Airport | Greater Moncton Roméo LeBlanc International Airport (CYQM) |
| Time | Latitude | Longitude | Altitude | Speed | Heading |
|---|---|---|---|---|---|
| 2026-05-04 21:42 | 44.88221 | -63.51666 | 454 ft | 0 kts | 307° |
| 2026-05-04 22:05 | 44.88222 | -63.51671 | 454 ft | 4 kts | 284° |
| 2026-05-04 22:06 | 44.88201 | -63.51679 | 454 ft | 0 kts | 156° |
| 2026-05-04 22:06 | 44.88200 | -63.51678 | 454 ft | 3 kts | 155° |
| 2026-05-04 22:06 | 44.88152 | -63.51604 | 454 ft | 13 kts | 124° |
| 2026-05-04 22:06 | 44.88140 | -63.51503 | 454 ft | 11 kts | 44° |
| 2026-05-04 22:07 | 44.88226 | -63.51417 | 454 ft | 17 kts | 34° |
| 2026-05-04 22:07 | 44.88320 | -63.51324 | 453 ft | 16 kts | 35° |
| 2026-05-04 22:07 | 44.88421 | -63.51219 | 453 ft | 19 kts | 23° |
| 2026-05-04 22:07 | 44.88545 | -63.51228 | 453 ft | 18 kts | 350° |
| 2026-05-04 22:08 | 44.88670 | -63.51246 | 452 ft | 18 kts | 19° |
| 2026-05-04 22:08 | 44.88704 | -63.51098 | 452 ft | 16 kts | 79° |
| 2026-05-04 22:08 | 44.88726 | -63.50945 | 452 ft | 16 kts | 67° |
| 2026-05-04 22:08 | 44.88816 | -63.50835 | 452 ft | 19 kts | 35° |
| 2026-05-04 22:09 | 44.88921 | -63.50730 | 452 ft | 18 kts | 34° |
| 2026-05-04 22:09 | 44.89004 | -63.50613 | 452 ft | 11 kts | 88° |
| 2026-05-04 22:09 | 44.88980 | -63.50547 | 452 ft | 8 kts | 125° |
| 2026-05-04 22:09 | 44.88945 | -63.50475 | 451 ft | 11 kts | 128° |
| 2026-05-04 22:10 | 44.88880 | -63.50451 | 452 ft | 10 kts | 211° |
| 2026-05-04 22:10 | 44.88877 | -63.50454 | 452 ft | 0 kts | 212° |
| 2026-05-04 22:10 | 44.88749 | -63.50576 | 454 ft | 60 kts | 215° |
| 2026-05-04 22:10 | 44.88199 | -63.51160 | 461 ft | 134 kts | 223° |
| 2026-05-04 22:11 | 44.87421 | -63.51964 | 1369 ft | 144 kts | 219° |
| 2026-05-04 22:11 | 44.86493 | -63.52880 | 2223 ft | 181 kts | 220° |
| 2026-05-04 22:11 | 44.85408 | -63.53865 | 3275 ft | 194 kts | 219° |
| 2026-05-04 22:11 | 44.84223 | -63.54974 | 4113 ft | 211 kts | 231° |
| 2026-05-04 22:12 | 44.83640 | -63.56862 | 4952 ft | 222 kts | 264° |
| 2026-05-04 22:12 | 44.83671 | -63.59131 | 5810 ft | 244 kts | 280° |
| 2026-05-04 22:12 | 44.84405 | -63.61342 | 6609 ft | 249 kts | 299° |
| 2026-05-04 22:12 | 44.85506 | -63.63312 | 7412 ft | 267 kts | 302° |
| 2026-05-04 22:13 | 44.86584 | -63.65305 | 8192 ft | 240 kts | 299° |
| 2026-05-04 22:13 | 44.87557 | -63.67293 | 9000 ft | 255 kts | 298° |
| 2026-05-04 22:13 | 44.88599 | -63.69423 | 9823 ft | 271 kts | 299° |
| 2026-05-04 22:13 | 44.89709 | -63.71639 | 10618 ft | 283 kts | 300° |
| 2026-05-04 22:14 | 44.90865 | -63.73931 | 11395 ft | 289 kts | 300° |
| 2026-05-04 22:14 | 44.92036 | -63.76282 | 11880 ft | 295 kts | 300° |
| 2026-05-04 22:14 | 44.93224 | -63.78665 | 12006 ft | 297 kts | 300° |
| 2026-05-04 22:14 | 44.94404 | -63.81032 | 11994 ft | 293 kts | 300° |
| 2026-05-04 22:15 | 44.95578 | -63.83386 | 11993 ft | 292 kts | 300° |
| 2026-05-04 22:15 | 44.96728 | -63.85704 | 12003 ft | 291 kts | 300° |
| 2026-05-04 22:15 | 44.97893 | -63.88048 | 12003 ft | 292 kts | 300° |
| 2026-05-04 22:15 | 44.99061 | -63.90404 | 11996 ft | 292 kts | 300° |
| 2026-05-04 22:16 | 45.00232 | -63.92763 | 12011 ft | 293 kts | 300° |
| 2026-05-04 22:16 | 45.01404 | -63.95127 | 12012 ft | 293 kts | 300° |
| 2026-05-04 22:16 | 45.02572 | -63.97487 | 12012 ft | 293 kts | 300° |
| 2026-05-04 22:16 | 45.03728 | -63.99820 | 12012 ft | 293 kts | 300° |
| 2026-05-04 22:17 | 45.04894 | -64.02184 | 12007 ft | 293 kts | 300° |
| 2026-05-04 22:17 | 45.06075 | -64.04540 | 11993 ft | 293 kts | 302° |
| 2026-05-04 22:17 | 45.07761 | -64.06271 | 11987 ft | 315 kts | 331° |
| 2026-05-04 22:17 | 45.09970 | -64.06814 | 12007 ft | 328 kts | 347° |
| 2026-05-04 22:18 | 45.12255 | -64.06996 | 12012 ft | 329 kts | 348° |
| 2026-05-04 22:18 | 45.14527 | -64.07324 | 12009 ft | 325 kts | 342° |
| 2026-05-04 22:18 | 45.16707 | -64.08065 | 12003 ft | 319 kts | 335° |
| 2026-05-04 22:18 | 45.18815 | -64.09018 | 12008 ft | 318 kts | 334° |
| 2026-05-04 22:19 | 45.20953 | -64.09857 | 12011 ft | 320 kts | 338° |
| 2026-05-04 22:19 | 45.23086 | -64.10585 | 12013 ft | 319 kts | 338° |
| 2026-05-04 22:19 | 45.25237 | -64.11362 | 12018 ft | 318 kts | 336° |
| 2026-05-04 22:19 | 45.27376 | -64.12171 | 12010 ft | 319 kts | 336° |
| 2026-05-04 22:20 | 45.29525 | -64.12980 | 12003 ft | 320 kts | 336° |
| 2026-05-04 22:20 | 45.31679 | -64.13773 | 11995 ft | 320 kts | 336° |
| 2026-05-04 22:20 | 45.33835 | -64.14574 | 11991 ft | 320 kts | 336° |
| 2026-05-04 22:20 | 45.35997 | -64.15376 | 12000 ft | 320 kts | 336° |
| 2026-05-04 22:21 | 45.38153 | -64.16180 | 11996 ft | 321 kts | 336° |
| 2026-05-04 22:21 | 45.40317 | -64.16987 | 11998 ft | 321 kts | 336° |
| 2026-05-04 22:21 | 45.42477 | -64.17795 | 11991 ft | 321 kts | 336° |
| 2026-05-04 22:21 | 45.44630 | -64.18595 | 12042 ft | 318 kts | 337° |
| 2026-05-04 22:22 | 45.46770 | -64.19386 | 12043 ft | 317 kts | 336° |
| 2026-05-04 22:22 | 45.48901 | -64.20184 | 12035 ft | 317 kts | 336° |
| 2026-05-04 22:22 | 45.51037 | -64.20983 | 12035 ft | 317 kts | 336° |
| 2026-05-04 22:22 | 45.53166 | -64.21782 | 12037 ft | 316 kts | 336° |
| 2026-05-04 22:23 | 45.55286 | -64.22576 | 12046 ft | 320 kts | 336° |
| 2026-05-04 22:23 | 45.57445 | -64.23385 | 12044 ft | 320 kts | 336° |
| 2026-05-04 22:23 | 45.59595 | -64.24188 | 12038 ft | 319 kts | 336° |
| 2026-05-04 22:23 | 45.61754 | -64.25000 | 12034 ft | 320 kts | 336° |
| 2026-05-04 22:24 | 45.63905 | -64.25807 | 12034 ft | 319 kts | 336° |
| 2026-05-04 22:24 | 45.66053 | -64.26613 | 12033 ft | 319 kts | 336° |
| 2026-05-04 22:24 | 45.68209 | -64.27428 | 11870 ft | 324 kts | 337° |
| 2026-05-04 22:24 | 45.70398 | -64.28253 | 11461 ft | 324 kts | 337° |
| 2026-05-04 22:25 | 45.72564 | -64.29060 | 11037 ft | 319 kts | 337° |
| 2026-05-04 22:25 | 45.74698 | -64.29864 | 10619 ft | 312 kts | 337° |
| 2026-05-04 22:25 | 45.76739 | -64.30626 | 10201 ft | 293 kts | 337° |
| 2026-05-04 22:25 | 45.78639 | -64.31338 | 9828 ft | 272 kts | 336° |
| 2026-05-04 22:26 | 45.80406 | -64.32007 | 9470 ft | 255 kts | 335° |
| 2026-05-04 22:26 | 45.82048 | -64.32633 | 9127 ft | 241 kts | 335° |
| 2026-05-04 22:26 | 45.83630 | -64.33233 | 8825 ft | 229 kts | 335° |
| 2026-05-04 22:26 | 45.85155 | -64.33815 | 8537 ft | 226 kts | 335° |
| 2026-05-04 22:27 | 45.86684 | -64.34403 | 8233 ft | 228 kts | 335° |
| 2026-05-04 22:27 | 45.88222 | -64.34984 | 7941 ft | 227 kts | 335° |
| 2026-05-04 22:27 | 45.89742 | -64.35557 | 7635 ft | 224 kts | 335° |
| 2026-05-04 22:27 | 45.91246 | -64.36126 | 7338 ft | 222 kts | 335° |
| 2026-05-04 22:28 | 45.92740 | -64.36697 | 7045 ft | 222 kts | 335° |
| 2026-05-04 22:28 | 45.94231 | -64.37263 | 6757 ft | 222 kts | 335° |
| 2026-05-04 22:28 | 45.95707 | -64.37826 | 6467 ft | 222 kts | 335° |
| 2026-05-04 22:28 | 45.97195 | -64.38388 | 6168 ft | 220 kts | 335° |
| 2026-05-04 22:29 | 45.98671 | -64.38950 | 5870 ft | 219 kts | 335° |
| 2026-05-04 22:29 | 46.00143 | -64.39510 | 5579 ft | 218 kts | 335° |
| 2026-05-04 22:29 | 46.01609 | -64.40072 | 5294 ft | 218 kts | 335° |
| 2026-05-04 22:29 | 46.03073 | -64.40591 | 5004 ft | 221 kts | 341° |
| 2026-05-04 22:30 | 46.04612 | -64.40755 | 4722 ft | 220 kts | 349° |
| 2026-05-04 22:30 | 46.06123 | -64.40829 | 4434 ft | 214 kts | 348° |
| 2026-05-04 22:30 | 46.07593 | -64.40921 | 4089 ft | 210 kts | 348° |
| 2026-05-04 22:30 | 46.08936 | -64.41415 | 3749 ft | 192 kts | 325° |
| 2026-05-04 22:31 | 46.09997 | -64.42433 | 3503 ft | 176 kts | 310° |
| 2026-05-04 22:31 | 46.10744 | -64.43742 | 3270 ft | 163 kts | 295° |
| 2026-05-04 22:31 | 46.11087 | -64.45238 | 3066 ft | 156 kts | 279° |
| 2026-05-04 22:31 | 46.11187 | -64.46740 | 2861 ft | 143 kts | 269° |
| 2026-05-04 22:32 | 46.11183 | -64.48123 | 2662 ft | 133 kts | 268° |
| 2026-05-04 22:32 | 46.11163 | -64.49429 | 2488 ft | 128 kts | 267° |
| 2026-05-04 22:32 | 46.11133 | -64.50689 | 2324 ft | 124 kts | 266° |
| 2026-05-04 22:32 | 46.11103 | -64.51891 | 2165 ft | 118 kts | 267° |
| 2026-05-04 22:33 | 46.11077 | -64.53025 | 2047 ft | 107 kts | 265° |
| 2026-05-04 22:33 | 46.11052 | -64.54074 | 2098 ft | 103 kts | 265° |
| 2026-05-04 22:33 | 46.11029 | -64.55055 | 2093 ft | 93 kts | 265° |
| 2026-05-04 22:33 | 46.11008 | -64.55951 | 2083 ft | 87 kts | 264° |
| 2026-05-04 22:34 | 46.10987 | -64.56835 | 2095 ft | 90 kts | 264° |
| 2026-05-04 22:34 | 46.10958 | -64.57760 | 1956 ft | 98 kts | 264° |
| 2026-05-04 22:34 | 46.10940 | -64.58723 | 1712 ft | 93 kts | 265° |
| 2026-05-04 22:34 | 46.10948 | -64.59656 | 1436 ft | 93 kts | 265° |
| 2026-05-04 22:35 | 46.10921 | -64.60568 | 1152 ft | 92 kts | 263° |
| 2026-05-04 22:35 | 46.10884 | -64.61494 | 882 ft | 91 kts | 264° |
| 2026-05-04 22:35 | 46.10853 | -64.62381 | 688 ft | 89 kts | 262° |
| 2026-05-04 22:35 | 46.10833 | -64.63282 | 539 ft | 90 kts | 262° |
| 2026-05-04 22:36 | 46.10799 | -64.64234 | 498 ft | 96 kts | 264° |
| 2026-05-04 22:36 | 46.10801 | -64.65166 | 392 ft | 95 kts | 264° |
| 2026-05-04 22:36 | 46.10780 | -64.66081 | 272 ft | 86 kts | 262° |
| 2026-05-04 22:36 | 46.10749 | -64.66944 | 218 ft | 85 kts | 262° |
| 2026-05-04 22:37 | 46.10724 | -64.67657 | 208 ft | 35 kts | 269° |
| 2026-05-04 22:37 | 46.10654 | -64.67751 | 211 ft | 13 kts | 185° |
| 2026-05-04 22:37 | 46.10591 | -64.67799 | 210 ft | 9 kts | 244° |
| 2026-05-04 22:37 | 46.10568 | -64.67866 | 215 ft | 6 kts | 242° |
| 2026-05-04 22:38 | 46.10555 | -64.67901 | 212 ft | 0 kts | 241° |